Siri Island, Iran

11:40 PM IRDT on August 21, 2014 (GMT +0430)
Kish | Change Station
CLOSE
Current Station
Airport
Location: Kish Island,
Elevation: 98 ft
Nearby Weather Stations

Elev 98 ft 26.53 °N, 53.98 °E | Updated 10 minutes ago

Partly Cloudy
Partly Cloudy
91 °F
Feels Like 100 °F
N
7
Wind Variable Wind from WNW

Today
High -- | Low -- °F
--% Chance of Precip.
Yesterday
High -- | Low -- °F
Precip. -- in
6:27 AM 7:22 PM
Waning Crescent, 13% visible
Pressure 29.50 in
Visibility 1.9 miles
Clouds Few 3500 ft
Heat Index 100 °F
Dew Point 73 °F
Humidity 55%
Rainfall 0.00 in
Snow Depth Not available.
UV 0 out of 12
Pollen Not available.
Air Quality Not available.
Flu Activity Not available.
METAR OIBK 211900Z 30006KT 3000 DU FEW035CB 33/23 Q0999

More Conditions Fewer Conditions

Pressure 29.50 in
Visibility 1.9 miles
Clouds Few 3500 ft
Heat Index 100 °F
Dew Point 73 °F
Humidity 55%
Rainfall 0.00 in
Snow Depth Not available.
UV 0 out of 12
Pollen Not available.
Air Quality Not available.
Flu Activity Not available.
METAR OIBK 211900Z 30006KT 3000 DU FEW035CB 33/23 Q0999

More Conditions Fewer Conditions

10-Day Weather Forecast

Almanac

Astronomy

Aug. 21, 2014 Rise Set
Actual Time 6:27 AM IRDT 7:22 PM IRDT
Civil Twilight 6:03 AM IRDT 7:46 PM IRDT
Nautical Twilight 5:35 AM IRDT 8:14 PM IRDT
Astronomical Twilight 5:06 AM IRDT 8:43 PM IRDT
Moon 2:47 AM IRDT 4:25 PM IRDT
Length of Visible Light 13h 42m
Length of Day
12h 55m
Tomorrow will be 1m 22s shorter.
Waning Crescent, 13% of the Moon is Illuminated
Today
Waning Crescent
Aug 25
New
Sep 2
First Quarter
Sep 8
Full
Sep 15
Last Quarter

Today's Extremes

Country Highs Country Lows

Community

WunderPhotos

Upload Photos

1,746,005 photos uploaded!

WunderBlogs® & News

Nearby

Snow Depth

Not available.

Earthquake Activity

City Distance Mag. Time & Date
No recent earthquake activity has been reported nearby.
Minimum magnitude displayed is 2.5.

Coastal Water Temperatures

Place Temperature
No Stations Reporting

Nearby Weather Stations